createdAt,value
2022-07-31T00:00:22.916Z,25.29
2022-07-31T00:02:50.797Z,25.31
2022-07-31T00:05:18.668Z,25.29
2022-07-31T00:07:46.389Z,25.30
2022-07-31T00:10:14.077Z,25.30
2022-07-31T00:12:41.948Z,25.29
2022-07-31T00:15:10.232Z,25.30
2022-07-31T00:17:39.186Z,25.28
2022-07-31T00:20:06.941Z,25.29
2022-07-31T00:22:35.673Z,25.28
2022-07-31T00:25:03.439Z,25.27
2022-07-31T00:27:31.188Z,25.27
2022-07-31T00:29:58.974Z,25.28
2022-07-31T00:32:26.716Z,25.29
2022-07-31T00:34:54.487Z,25.29
2022-07-31T00:37:22.292Z,25.28
2022-07-31T00:39:50.580Z,25.27
2022-07-31T00:42:18.268Z,25.27
2022-07-31T00:44:47.880Z,25.27
2022-07-31T00:47:16.387Z,25.27
2022-07-31T00:49:44.320Z,25.28
2022-07-31T00:52:12.159Z,25.28
2022-07-31T00:54:39.999Z,25.28
2022-07-31T00:57:07.824Z,25.28
2022-07-31T00:59:35.719Z,25.27
2022-07-31T01:02:03.439Z,25.27
2022-07-31T01:04:31.513Z,25.28
2022-07-31T01:07:01.216Z,25.27
2022-07-31T01:09:29.343Z,25.26
2022-07-31T01:11:57.196Z,25.25
2022-07-31T01:14:24.940Z,25.25
2022-07-31T01:16:52.745Z,25.24
2022-07-31T01:19:20.494Z,25.25
2022-07-31T01:21:48.273Z,25.25
2022-07-31T01:24:16.074Z,25.24
2022-07-31T01:26:43.788Z,25.24
2022-07-31T01:29:11.787Z,25.26
2022-07-31T01:31:39.556Z,25.25
2022-07-31T01:34:08.466Z,25.24
2022-07-31T01:36:36.163Z,25.22
2022-07-31T01:39:03.964Z,25.23
2022-07-31T01:41:31.726Z,25.23
2022-07-31T01:43:59.678Z,25.21
2022-07-31T01:46:27.407Z,25.21
2022-07-31T01:48:55.174Z,25.22
2022-07-31T01:51:23.547Z,25.21
2022-07-31T01:53:51.246Z,25.22
2022-07-31T01:56:19.025Z,25.21
2022-07-31T01:58:46.800Z,25.23
2022-07-31T02:01:14.546Z,25.21
2022-07-31T02:03:45.764Z,25.21
2022-07-31T02:06:16.146Z,25.20
2022-07-31T02:08:43.902Z,25.20
2022-07-31T02:11:12.452Z,25.21
2022-07-31T02:13:40.162Z,25.20
2022-07-31T02:16:07.890Z,25.20
2022-07-31T02:18:35.575Z,25.20
2022-07-31T02:21:03.314Z,25.18
2022-07-31T02:23:31.171Z,25.17
2022-07-31T02:25:58.930Z,25.18
2022-07-31T02:28:26.644Z,25.18
2022-07-31T02:30:54.681Z,25.17
2022-07-31T02:33:22.370Z,25.18
2022-07-31T02:35:50.194Z,25.20
2022-07-31T02:38:23.449Z,25.19
2022-07-31T02:40:51.432Z,25.17
2022-07-31T02:43:19.193Z,25.20
2022-07-31T02:45:46.920Z,25.18
2022-07-31T02:48:15.044Z,25.15
2022-07-31T02:50:42.833Z,25.17
2022-07-31T02:53:10.539Z,25.16
2022-07-31T02:55:39.073Z,25.16
2022-07-31T02:58:06.943Z,25.18
2022-07-31T03:00:34.779Z,25.16
2022-07-31T03:03:02.618Z,25.18
2022-07-31T03:05:31.357Z,25.16
2022-07-31T03:07:59.424Z,25.16
2022-07-31T03:10:27.114Z,25.15
2022-07-31T03:12:54.991Z,25.16
2022-07-31T03:15:23.748Z,25.16
2022-07-31T03:17:51.501Z,25.15
2022-07-31T03:20:19.253Z,25.15
2022-07-31T03:22:47.041Z,25.15
2022-07-31T03:25:20.190Z,25.16
2022-07-31T03:27:55.524Z,25.16
2022-07-31T03:30:25.211Z,25.16
2022-07-31T03:32:53.188Z,25.16
2022-07-31T03:35:20.999Z,25.16
2022-07-31T03:37:48.711Z,25.15
2022-07-31T03:40:16.421Z,25.16
2022-07-31T03:42:44.261Z,25.17
2022-07-31T03:45:12.187Z,25.15
2022-07-31T03:47:39.897Z,25.16
2022-07-31T03:50:07.954Z,25.16
2022-07-31T03:52:35.683Z,25.16
2022-07-31T03:55:03.428Z,25.16
2022-07-31T03:57:34.343Z,25.16
2022-07-31T04:00:02.588Z,25.15
2022-07-31T04:02:31.877Z,25.15
2022-07-31T04:05:00.207Z,25.15
2022-07-31T04:07:27.905Z,25.13
2022-07-31T04:09:55.644Z,25.16
2022-07-31T04:12:23.487Z,25.15
2022-07-31T04:14:51.308Z,25.14
2022-07-31T04:17:19.129Z,25.16
2022-07-31T04:19:46.858Z,25.15
2022-07-31T04:22:14.556Z,25.15
2022-07-31T04:24:42.374Z,25.14
2022-07-31T04:27:12.859Z,25.15
2022-07-31T04:29:40.802Z,25.14
2022-07-31T04:32:08.569Z,25.16
2022-07-31T04:34:36.315Z,25.14
2022-07-31T04:37:04.088Z,25.16
2022-07-31T04:39:31.894Z,25.16
2022-07-31T04:41:59.930Z,25.16
2022-07-31T04:44:27.726Z,25.16
2022-07-31T04:46:55.561Z,25.15
2022-07-31T04:49:24.174Z,25.15
2022-07-31T04:51:53.029Z,25.14
2022-07-31T04:54:20.779Z,25.15
2022-07-31T04:56:48.701Z,25.15
2022-07-31T04:59:16.491Z,25.17
2022-07-31T05:01:44.311Z,25.16
2022-07-31T05:04:12.168Z,25.16
2022-07-31T05:06:40.152Z,25.17
2022-07-31T05:09:09.496Z,25.17
2022-07-31T05:11:39.289Z,25.17
2022-07-31T05:14:07.213Z,25.18
2022-07-31T05:16:34.930Z,25.20
2022-07-31T05:19:03.015Z,25.18
2022-07-31T05:21:31.863Z,25.22
2022-07-31T05:23:59.579Z,25.23
2022-07-31T05:26:27.292Z,25.23
2022-07-31T05:28:58.301Z,25.23
2022-07-31T05:31:26.456Z,25.25
2022-07-31T05:33:54.327Z,25.26
2022-07-31T05:36:22.084Z,25.26
2022-07-31T05:38:49.861Z,25.27
2022-07-31T05:41:17.683Z,25.28
2022-07-31T05:43:45.374Z,25.29
2022-07-31T05:46:14.363Z,25.30
2022-07-31T05:48:42.096Z,25.29
2022-07-31T05:51:09.781Z,25.30
2022-07-31T05:53:37.644Z,25.31
2022-07-31T05:56:05.548Z,25.32
2022-07-31T05:58:33.862Z,25.34
2022-07-31T06:01:01.701Z,25.37
2022-07-31T06:03:29.781Z,25.38
2022-07-31T06:05:57.505Z,25.39
2022-07-31T06:08:26.328Z,25.43
2022-07-31T06:10:54.099Z,25.45
2022-07-31T06:13:22.281Z,25.50
2022-07-31T06:15:50.272Z,25.50
2022-07-31T06:18:17.993Z,25.54
2022-07-31T06:20:45.687Z,25.55
2022-07-31T06:23:19.822Z,25.56
2022-07-31T06:25:57.290Z,25.56
2022-07-31T06:28:38.834Z,25.59
2022-07-31T06:31:12.828Z,25.62
2022-07-31T06:33:40.591Z,25.63
2022-07-31T06:36:16.011Z,25.62
2022-07-31T06:38:43.778Z,25.63
2022-07-31T06:41:11.530Z,25.63
2022-07-31T06:43:39.246Z,25.63
2022-07-31T06:46:06.998Z,25.64
2022-07-31T06:48:34.807Z,25.64
2022-07-31T06:51:29.693Z,25.66
2022-07-31T06:53:50.377Z,25.64
2022-07-31T06:56:18.094Z,25.65
2022-07-31T06:58:45.951Z,25.65
2022-07-31T07:01:14.057Z,25.65
2022-07-31T07:03:41.825Z,25.67
2022-07-31T07:06:09.593Z,25.69
2022-07-31T07:08:37.342Z,25.69
2022-07-31T07:11:05.084Z,25.69
2022-07-31T07:13:45.331Z,25.67
2022-07-31T07:16:14.682Z,25.64
2022-07-31T07:18:43.192Z,25.64
2022-07-31T07:21:11.102Z,25.63
2022-07-31T07:23:38.925Z,25.64
2022-07-31T07:26:06.680Z,25.63
2022-07-31T07:28:34.382Z,25.62
2022-07-31T07:31:02.190Z,25.64
2022-07-31T07:33:41.657Z,25.65
2022-07-31T07:36:22.787Z,25.65
2022-07-31T07:38:52.224Z,25.66
2022-07-31T07:41:21.397Z,25.66
2022-07-31T07:43:52.350Z,25.66
2022-07-31T07:46:20.804Z,25.70
2022-07-31T07:48:49.237Z,25.69
2022-07-31T07:51:17.210Z,25.69
2022-07-31T07:53:45.458Z,25.70
2022-07-31T07:56:13.173Z,25.68
2022-07-31T07:58:40.874Z,25.67
2022-07-31T08:01:08.687Z,25.72
2022-07-31T08:03:48.854Z,25.74
2022-07-31T08:06:19.355Z,25.74
2022-07-31T08:08:47.190Z,25.76
2022-07-31T08:11:17.523Z,25.73
2022-07-31T08:13:50.066Z,25.72
2022-07-31T08:16:18.123Z,25.71
2022-07-31T08:18:45.885Z,25.71
2022-07-31T08:21:13.594Z,25.72
2022-07-31T08:23:41.532Z,25.71
2022-07-31T08:26:09.510Z,25.75
2022-07-31T08:28:37.272Z,25.75
2022-07-31T08:31:04.998Z,25.78
2022-07-31T08:33:33.201Z,25.80
2022-07-31T08:36:01.004Z,25.81
2022-07-31T08:38:28.882Z,25.80
2022-07-31T08:40:56.717Z,25.75
2022-07-31T08:44:00.237Z,25.73
2022-07-31T08:46:13.003Z,25.69
2022-07-31T08:48:40.751Z,25.69
2022-07-31T08:51:08.483Z,25.69
2022-07-31T08:53:36.316Z,25.69
2022-07-31T08:56:04.039Z,25.68
2022-07-31T08:58:34.905Z,25.68
2022-07-31T09:01:05.074Z,25.70
2022-07-31T09:03:32.994Z,25.71
2022-07-31T09:06:00.774Z,25.72
2022-07-31T09:08:28.763Z,25.76
2022-07-31T09:10:56.476Z,25.83
2022-07-31T09:13:24.292Z,25.86
2022-07-31T09:15:52.691Z,25.88
2022-07-31T09:18:21.388Z,25.87
2022-07-31T09:20:49.173Z,25.88
2022-07-31T09:23:16.893Z,25.88
2022-07-31T09:25:44.632Z,25.87
2022-07-31T09:28:12.360Z,25.90
2022-07-31T09:30:55.702Z,25.89
2022-07-31T09:33:24.465Z,25.87
2022-07-31T09:35:52.318Z,25.89
2022-07-31T09:38:20.279Z,25.89
2022-07-31T09:40:57.067Z,25.87
2022-07-31T09:43:25.869Z,25.88
2022-07-31T09:45:59.062Z,25.88
2022-07-31T09:48:28.665Z,25.85
2022-07-31T09:50:56.710Z,25.87
2022-07-31T09:53:24.504Z,25.87
2022-07-31T09:55:52.524Z,25.86
2022-07-31T09:58:20.296Z,25.83
2022-07-31T10:00:49.197Z,25.83
2022-07-31T10:03:18.720Z,25.84
2022-07-31T10:05:46.464Z,25.82
2022-07-31T10:08:14.344Z,25.86
2022-07-31T10:10:42.067Z,25.83
2022-07-31T10:13:09.776Z,25.83
2022-07-31T10:15:37.610Z,25.83
2022-07-31T10:18:05.577Z,25.82
2022-07-31T10:20:33.786Z,25.82
2022-07-31T10:23:01.480Z,25.82
2022-07-31T10:25:29.246Z,25.79
2022-07-31T10:27:57.676Z,25.77
2022-07-31T10:30:28.204Z,25.77
2022-07-31T10:36:05.420Z,25.75
2022-07-31T10:38:57.829Z,25.76
2022-07-31T10:41:34.960Z,25.74
2022-07-31T10:44:04.123Z,25.74
2022-07-31T10:46:34.758Z,25.76
2022-07-31T10:49:15.559Z,25.76
2022-07-31T10:55:08.956Z,25.73
2022-07-31T11:00:50.222Z,25.71
2022-07-31T11:03:25.327Z,25.72
2022-07-31T11:06:25.313Z,25.70
2022-07-31T11:08:53.825Z,25.70
2022-07-31T11:11:26.004Z,25.71
2022-07-31T11:13:55.456Z,25.71
2022-07-31T11:16:23.314Z,25.71
2022-07-31T11:18:51.154Z,25.71
2022-07-31T11:21:38.171Z,25.72
2022-07-31T11:24:11.608Z,25.72
2022-07-31T11:26:42.205Z,25.73
2022-07-31T11:29:59.800Z,25.74
2022-07-31T11:32:02.585Z,25.70
2022-07-31T11:34:30.673Z,25.71
2022-07-31T11:36:58.871Z,25.71
2022-07-31T11:39:36.468Z,25.76
2022-07-31T11:42:05.046Z,25.77
2022-07-31T11:48:10.075Z,25.79
2022-07-31T11:50:37.061Z,25.74
2022-07-31T11:53:19.112Z,25.71
2022-07-31T11:55:58.839Z,25.74
2022-07-31T12:04:37.370Z,25.72
2022-07-31T12:07:05.397Z,25.76
2022-07-31T12:10:02.555Z,25.77
2022-07-31T12:12:22.982Z,25.76
2022-07-31T12:14:55.067Z,25.75
2022-07-31T12:17:22.833Z,25.72
2022-07-31T12:19:53.791Z,25.73
2022-07-31T12:22:23.971Z,25.75
2022-07-31T12:24:51.733Z,25.75
2022-07-31T12:27:19.688Z,25.74
2022-07-31T12:29:47.409Z,25.73
2022-07-31T12:32:15.140Z,25.73
2022-07-31T12:34:45.676Z,25.73
2022-07-31T12:37:13.742Z,25.72
2022-07-31T12:42:42.166Z,25.68
2022-07-31T12:45:29.044Z,25.67
2022-07-31T12:51:09.250Z,25.69
2022-07-31T12:56:42.941Z,25.70
2022-07-31T12:59:35.437Z,25.71
2022-07-31T13:05:20.785Z,25.66
2022-07-31T13:07:57.188Z,25.67
2022-07-31T13:10:45.334Z,25.70
2022-07-31T13:13:19.659Z,25.68
2022-07-31T13:37:07.890Z,25.68
2022-07-31T13:39:35.739Z,25.70
2022-07-31T13:42:09.147Z,25.71
2022-07-31T13:44:43.865Z,25.69
2022-07-31T13:50:32.475Z,25.70
2022-07-31T13:53:03.353Z,25.69
2022-07-31T13:55:50.219Z,25.70
2022-07-31T14:02:03.444Z,25.68
2022-07-31T14:04:19.192Z,25.68
2022-07-31T14:07:04.728Z,25.69
2022-07-31T14:12:47.412Z,25.67
2022-07-31T14:15:30.353Z,25.68
2022-07-31T14:18:12.935Z,25.70
2022-07-31T14:20:58.800Z,25.67
2022-07-31T14:23:33.327Z,25.70
2022-07-31T14:26:04.177Z,25.73
2022-07-31T14:28:32.021Z,25.72
2022-07-31T14:30:59.928Z,25.74
2022-07-31T14:33:27.702Z,25.73
2022-07-31T14:36:14.993Z,25.73
2022-07-31T14:38:43.103Z,25.70
2022-07-31T14:41:17.980Z,25.73
2022-07-31T14:43:53.713Z,25.78
2022-07-31T14:46:31.679Z,25.77
2022-07-31T14:51:43.588Z,25.75
2022-07-31T14:54:11.377Z,25.77
2022-07-31T14:57:00.151Z,25.77
2022-07-31T14:59:33.339Z,25.79
2022-07-31T15:02:01.163Z,25.82
2022-07-31T15:04:29.017Z,25.84
2022-07-31T15:07:18.733Z,25.87
2022-07-31T15:09:47.456Z,25.88
2022-07-31T15:12:17.060Z,25.91
2022-07-31T15:14:44.836Z,25.91
2022-07-31T15:17:12.618Z,25.92
2022-07-31T15:19:42.392Z,25.89
2022-07-31T15:22:16.366Z,25.89
2022-07-31T15:24:49.180Z,25.90
2022-07-31T15:27:30.569Z,25.88
2022-07-31T15:30:06.710Z,25.88
2022-07-31T15:32:41.582Z,25.87
2022-07-31T15:35:09.547Z,25.87
2022-07-31T15:37:42.305Z,25.88
2022-07-31T15:40:10.105Z,25.85
2022-07-31T15:42:57.886Z,25.88
2022-07-31T15:45:25.938Z,25.85
2022-07-31T15:48:04.838Z,25.86
2022-07-31T15:50:41.929Z,25.87
2022-07-31T15:53:11.456Z,25.85
2022-07-31T15:55:43.823Z,25.86
2022-07-31T16:01:12.980Z,25.87
2022-07-31T16:09:34.671Z,25.86
2022-07-31T16:12:32.108Z,25.88
2022-07-31T16:15:00.044Z,25.90
2022-07-31T16:17:37.879Z,25.89
2022-07-31T16:20:06.027Z,25.87
2022-07-31T16:22:33.804Z,25.89
2022-07-31T16:25:01.592Z,25.88
2022-07-31T16:27:29.531Z,25.90
2022-07-31T16:29:59.807Z,25.91
2022-07-31T16:32:29.933Z,25.90
2022-07-31T16:35:01.078Z,25.89
2022-07-31T16:37:50.991Z,25.89
2022-07-31T16:40:28.030Z,25.88
2022-07-31T16:43:00.774Z,25.86
2022-07-31T16:45:28.859Z,25.87
2022-07-31T16:47:56.560Z,25.86
2022-07-31T16:50:24.322Z,25.86
2022-07-31T16:52:54.818Z,25.84
2022-07-31T16:55:51.681Z,25.84
2022-07-31T16:58:11.774Z,25.84
2022-07-31T17:00:39.704Z,25.85
2022-07-31T17:03:59.148Z,25.85
2022-07-31T17:05:55.537Z,25.83
2022-07-31T17:08:23.351Z,25.83
2022-07-31T17:10:54.375Z,25.84
2022-07-31T17:13:22.625Z,25.84
2022-07-31T17:15:50.484Z,25.83
2022-07-31T17:18:18.329Z,25.84
2022-07-31T17:20:47.182Z,25.85
2022-07-31T17:23:15.904Z,25.83
2022-07-31T17:25:43.775Z,25.82
2022-07-31T17:28:15.369Z,25.83
2022-07-31T17:30:45.039Z,25.83
2022-07-31T17:33:12.871Z,25.81
2022-07-31T17:35:40.968Z,25.81
2022-07-31T17:38:08.792Z,25.82
2022-07-31T17:40:44.428Z,25.80
2022-07-31T17:43:13.345Z,25.77
2022-07-31T17:45:59.427Z,25.77
2022-07-31T17:48:29.005Z,25.77
2022-07-31T17:50:56.933Z,25.77
2022-07-31T17:53:43.365Z,25.79
2022-07-31T17:56:13.111Z,25.78
2022-07-31T17:58:41.133Z,25.81
2022-07-31T18:01:09.072Z,25.83
2022-07-31T18:03:37.210Z,25.82
2022-07-31T18:06:05.166Z,25.85
2022-07-31T18:08:33.233Z,25.84
2022-07-31T18:11:01.092Z,25.84
2022-07-31T18:13:29.066Z,25.83
2022-07-31T18:15:56.846Z,25.82
2022-07-31T18:18:24.618Z,25.83
2022-07-31T18:20:52.494Z,25.82
2022-07-31T18:23:23.013Z,25.81
2022-07-31T18:25:51.651Z,25.82
2022-07-31T18:28:19.768Z,25.81
2022-07-31T18:30:47.771Z,25.83
2022-07-31T18:33:17.471Z,25.83
2022-07-31T18:35:45.432Z,25.84
2022-07-31T18:38:13.422Z,25.83
2022-07-31T18:40:41.319Z,25.83
2022-07-31T18:43:09.960Z,25.83
2022-07-31T18:45:41.514Z,25.83
2022-07-31T18:48:12.102Z,25.82
2022-07-31T18:51:00.120Z,25.82
2022-07-31T18:53:27.988Z,25.83
2022-07-31T18:55:55.771Z,25.84
2022-07-31T18:58:23.600Z,25.84
2022-07-31T19:00:54.958Z,25.84
2022-07-31T19:03:23.651Z,25.84
2022-07-31T19:05:53.280Z,25.84
2022-07-31T19:08:21.057Z,25.84
2022-07-31T19:10:49.675Z,25.83
2022-07-31T19:13:19.259Z,25.83
2022-07-31T19:15:47.378Z,25.86
2022-07-31T19:18:15.578Z,25.88
2022-07-31T19:20:58.985Z,25.87
2022-07-31T19:23:33.013Z,25.87
2022-07-31T19:26:04.002Z,25.87
2022-07-31T19:28:32.467Z,25.85
2022-07-31T19:31:00.280Z,25.84
2022-07-31T19:33:28.214Z,25.85
2022-07-31T19:36:01.517Z,25.85
2022-07-31T19:38:29.929Z,25.85
2022-07-31T19:40:57.650Z,25.85
2022-07-31T19:43:25.511Z,25.85
2022-07-31T19:46:02.505Z,25.84
2022-07-31T19:48:40.440Z,25.82
2022-07-31T19:51:08.402Z,25.83
2022-07-31T19:53:36.328Z,25.83
2022-07-31T19:56:05.812Z,25.83
2022-07-31T19:58:34.617Z,25.84
2022-07-31T20:01:02.702Z,25.82
2022-07-31T20:03:30.830Z,25.82
2022-07-31T20:05:58.582Z,25.82
2022-07-31T20:08:26.368Z,25.85
2022-07-31T20:10:59.434Z,25.83
2022-07-31T20:13:28.073Z,25.83
2022-07-31T20:15:55.845Z,25.81
2022-07-31T20:18:28.332Z,25.82
2022-07-31T20:20:57.208Z,25.83
2022-07-31T20:23:25.141Z,25.81
2022-07-31T20:25:53.025Z,25.82
2022-07-31T20:28:20.747Z,25.81
2022-07-31T20:30:48.518Z,25.82
2022-07-31T20:33:16.692Z,25.83
2022-07-31T20:35:49.153Z,25.82
2022-07-31T20:38:17.793Z,25.82
2022-07-31T20:40:53.923Z,25.82
2022-07-31T20:43:22.785Z,25.80
2022-07-31T20:45:50.574Z,25.81
2022-07-31T20:48:18.740Z,25.81
2022-07-31T20:50:48.241Z,25.81
2022-07-31T20:53:16.332Z,25.80
2022-07-31T20:55:47.135Z,25.79
2022-07-31T20:58:15.235Z,25.80
2022-07-31T21:00:42.935Z,25.79
2022-07-31T21:03:10.625Z,25.81
2022-07-31T21:05:38.870Z,25.79
2022-07-31T21:08:06.713Z,25.79
2022-07-31T21:10:34.468Z,25.78
2022-07-31T21:13:02.366Z,25.80
2022-07-31T21:15:42.443Z,25.80
2022-07-31T21:18:12.721Z,25.79
2022-07-31T21:20:49.834Z,25.77
2022-07-31T21:23:20.573Z,25.76
2022-07-31T21:25:48.470Z,25.78
2022-07-31T21:28:16.459Z,25.79
2022-07-31T21:30:44.243Z,25.78
2022-07-31T21:33:12.132Z,25.78
2022-07-31T21:35:40.772Z,25.77
2022-07-31T21:38:10.418Z,25.76
2022-07-31T21:40:39.774Z,25.75
2022-07-31T21:43:07.797Z,25.75
2022-07-31T21:45:49.669Z,25.77
2022-07-31T21:48:25.198Z,25.74
2022-07-31T21:50:53.216Z,25.74
2022-07-31T21:53:21.139Z,25.76
2022-07-31T21:55:49.142Z,25.76
2022-07-31T21:58:16.996Z,25.74
2022-07-31T22:00:44.974Z,25.75
2022-07-31T22:03:12.952Z,25.74
2022-07-31T22:05:58.234Z,25.74
2022-07-31T22:08:26.304Z,25.74
2022-07-31T22:10:54.153Z,25.74
2022-07-31T22:13:21.908Z,25.73
2022-07-31T22:15:55.456Z,25.72
2022-07-31T22:18:28.174Z,25.71
2022-07-31T22:20:56.054Z,25.74
2022-07-31T22:23:23.949Z,25.73
2022-07-31T22:25:51.697Z,25.73
2022-07-31T22:28:19.570Z,25.73
2022-07-31T22:30:47.355Z,25.73
2022-07-31T22:33:15.160Z,25.73
2022-07-31T22:35:43.011Z,25.73
2022-07-31T22:38:11.158Z,25.73
2022-07-31T23:00:43.024Z,25.67
2022-07-31T23:03:10.720Z,25.69
2022-07-31T23:06:13.177Z,25.70
2022-07-31T23:08:26.280Z,25.70
2022-07-31T23:10:54.191Z,25.70
2022-07-31T23:13:21.956Z,25.70
2022-07-31T23:15:49.657Z,25.70
2022-07-31T23:18:17.439Z,25.70
2022-07-31T23:20:45.194Z,25.68
2022-07-31T23:23:12.890Z,25.69
2022-07-31T23:25:40.625Z,25.69
2022-07-31T23:28:08.345Z,25.69
2022-07-31T23:30:36.082Z,25.69
2022-07-31T23:33:03.876Z,25.68
2022-07-31T23:35:31.737Z,25.66
2022-07-31T23:37:59.477Z,25.69
2022-07-31T23:40:27.324Z,25.69
2022-07-31T23:42:54.040Z,25.67
2022-07-31T23:45:23.494Z,25.67
2022-07-31T23:47:51.511Z,25.66
2022-07-31T23:50:19.205Z,25.67
2022-07-31T23:52:46.953Z,25.67
2022-07-31T23:55:14.731Z,25.67
2022-07-31T23:57:42.625Z,25.66
